createdAt,value
2023-01-21T00:00:40.839Z,57.00
2023-01-21T00:03:08.370Z,56.92
2023-01-21T00:05:35.619Z,45.53
2023-01-21T00:08:02.994Z,43.03
2023-01-21T00:10:30.330Z,48.97
2023-01-21T00:12:57.548Z,40.03
2023-01-21T00:15:24.732Z,42.60
2023-01-21T00:17:55.151Z,49.28
2023-01-21T00:20:22.334Z,45.92
2023-01-21T00:22:49.556Z,44.22
2023-01-21T00:25:16.733Z,47.97
2023-01-21T00:27:43.958Z,47.25
2023-01-21T00:30:11.433Z,46.28
2023-01-21T00:32:38.701Z,47.33
2023-01-21T00:35:06.640Z,40.80
2023-01-21T00:37:33.830Z,41.05
2023-01-21T00:40:01.133Z,41.38
2023-01-21T00:42:28.784Z,42.40
2023-01-21T00:44:57.419Z,49.50
2023-01-21T00:47:24.899Z,43.58
2023-01-21T00:49:51.978Z,41.13
2023-01-21T00:52:19.216Z,39.50
2023-01-21T00:54:46.660Z,44.47
2023-01-21T00:57:14.034Z,37.95
2023-01-21T00:59:41.354Z,46.25
2023-01-21T01:02:09.108Z,51.40
2023-01-21T01:04:36.654Z,42.45
2023-01-21T01:07:03.897Z,42.05
2023-01-21T01:09:31.073Z,39.50
2023-01-21T01:11:58.250Z,40.05
2023-01-21T01:14:25.410Z,40.85
2023-01-21T01:16:52.561Z,43.00
2023-01-21T01:19:19.717Z,42.10
2023-01-21T01:21:46.808Z,43.15
2023-01-21T01:24:13.947Z,41.08
2023-01-21T01:26:42.333Z,41.55
2023-01-21T01:29:12.282Z,41.85
2023-01-21T01:31:39.791Z,40.53
2023-01-21T01:34:07.528Z,36.78
2023-01-21T01:36:34.695Z,39.83
2023-01-21T01:39:01.950Z,34.85
2023-01-21T01:41:30.030Z,40.67
2023-01-21T01:44:01.688Z,36.08
2023-01-21T01:46:30.549Z,31.52
2023-01-21T01:49:11.175Z,38.53
2023-01-21T01:51:43.798Z,32.25
2023-01-21T01:56:40.394Z,35.63
2023-01-21T01:59:07.921Z,38.53
2023-01-21T02:01:35.249Z,34.58
2023-01-21T02:04:04.342Z,32.67
2023-01-21T02:06:31.715Z,34.10
2023-01-21T02:08:58.900Z,36.85
2023-01-21T02:11:26.171Z,35.75
2023-01-21T02:13:58.482Z,32.17
2023-01-21T02:16:34.842Z,35.95
2023-01-21T02:19:20.490Z,36.78
2023-01-21T02:22:00.573Z,33.75
2023-01-21T02:24:46.613Z,36.83
2023-01-21T02:27:30.415Z,37.78
2023-01-21T02:30:24.434Z,37.30
2023-01-21T02:33:10.113Z,39.42
2023-01-21T02:35:51.245Z,42.72
2023-01-21T02:38:31.155Z,44.60
2023-01-21T02:41:06.853Z,40.70
2023-01-21T02:43:47.889Z,49.17
2023-01-21T02:46:38.487Z,45.55
2023-01-21T02:49:10.310Z,47.92
2023-01-21T02:51:37.427Z,47.78
2023-01-21T02:54:14.872Z,52.72
2023-01-21T02:56:42.260Z,56.30
2023-01-21T02:59:09.895Z,48.88
2023-01-21T03:01:42.982Z,47.33
2023-01-21T03:04:20.483Z,51.25
2023-01-21T03:06:53.425Z,69.32
2023-01-21T03:09:23.672Z,49.40
2023-01-21T03:12:03.033Z,49.40
2023-01-21T03:14:51.573Z,49.90
2023-01-21T03:17:33.739Z,49.75
2023-01-21T03:20:13.165Z,45.42
2023-01-21T03:22:40.817Z,54.30
2023-01-21T03:25:09.514Z,52.10
2023-01-21T03:27:38.426Z,44.55
2023-01-21T03:30:09.711Z,47.95
2023-01-21T03:32:37.141Z,48.90
2023-01-21T03:35:06.259Z,51.35
2023-01-21T03:37:36.729Z,52.65
2023-01-21T03:40:04.034Z,47.65
2023-01-21T03:42:31.370Z,48.58
2023-01-21T03:44:58.872Z,42.50
2023-01-21T03:47:33.721Z,49.88
2023-01-21T03:50:19.739Z,48.42
2023-01-21T03:52:47.509Z,50.22
2023-01-21T03:55:15.371Z,48.55
2023-01-21T03:57:42.557Z,51.95
2023-01-21T04:00:10.305Z,53.67
2023-01-21T04:02:37.489Z,46.85
2023-01-21T04:05:04.768Z,45.42
2023-01-21T04:07:31.982Z,46.70
2023-01-21T04:09:59.249Z,45.60
2023-01-21T04:12:26.365Z,48.05
2023-01-21T04:14:53.571Z,54.25
2023-01-21T04:17:20.941Z,49.78
2023-01-21T04:19:48.106Z,46.42
2023-01-21T04:22:15.311Z,48.40
2023-01-21T04:24:42.522Z,49.55
2023-01-21T04:27:09.795Z,44.92
2023-01-21T04:29:36.891Z,46.90
2023-01-21T04:32:04.376Z,47.70
2023-01-21T04:34:31.521Z,43.47
2023-01-21T04:36:58.652Z,51.92
2023-01-21T04:39:25.896Z,43.25
2023-01-21T04:41:53.074Z,46.70
2023-01-21T04:44:20.195Z,42.53
2023-01-21T04:46:47.332Z,40.88
2023-01-21T04:49:14.743Z,40.75
2023-01-21T04:51:42.047Z,41.40
2023-01-21T04:54:10.567Z,45.03
2023-01-21T04:56:37.766Z,37.30
2023-01-21T04:59:04.984Z,42.60
2023-01-21T05:01:32.220Z,39.72
2023-01-21T05:03:59.314Z,39.85
2023-01-21T05:06:26.451Z,42.95
2023-01-21T05:08:53.510Z,37.85
2023-01-21T05:11:20.947Z,37.13
2023-01-21T05:13:48.152Z,35.45
2023-01-21T05:16:15.489Z,39.78
2023-01-21T05:18:44.499Z,40.38
2023-01-21T05:21:12.939Z,35.15
2023-01-21T05:23:40.092Z,36.88
2023-01-21T05:26:07.288Z,37.63
2023-01-21T05:28:34.530Z,33.65
2023-01-21T05:31:02.425Z,37.38
2023-01-21T05:33:34.731Z,31.63
2023-01-21T05:36:02.457Z,36.78
2023-01-21T05:38:29.996Z,38.30
2023-01-21T05:40:58.079Z,35.90
2023-01-21T05:43:25.391Z,39.72
2023-01-21T05:45:52.812Z,39.92
2023-01-21T05:48:19.915Z,37.92
2023-01-21T05:50:47.013Z,36.20
2023-01-21T05:53:14.359Z,34.92
2023-01-21T05:55:42.000Z,38.35
2023-01-21T05:58:09.856Z,40.67
2023-01-21T06:00:37.032Z,35.53
2023-01-21T06:03:04.563Z,38.28
2023-01-21T06:05:31.755Z,38.88
2023-01-21T06:07:58.847Z,39.83
2023-01-21T06:10:25.930Z,37.83
2023-01-21T06:12:53.119Z,40.45
2023-01-21T06:15:20.635Z,41.83
2023-01-21T06:17:47.733Z,44.58
2023-01-21T06:20:15.136Z,38.63
2023-01-21T06:22:42.485Z,44.58
2023-01-21T06:25:10.100Z,39.17
2023-01-21T06:27:38.313Z,36.85
2023-01-21T06:30:08.854Z,41.42
2023-01-21T06:32:36.352Z,49.65
2023-01-21T06:35:04.239Z,42.42
2023-01-21T06:37:31.387Z,42.15
2023-01-21T06:39:58.595Z,43.63
2023-01-21T06:42:25.982Z,45.45
2023-01-21T06:44:53.185Z,46.92
2023-01-21T06:47:20.544Z,49.15
2023-01-21T06:49:47.650Z,39.42
2023-01-21T06:52:14.756Z,37.67
2023-01-21T06:54:43.275Z,42.25
2023-01-21T06:57:10.764Z,43.88
2023-01-21T06:59:37.862Z,41.50
2023-01-21T07:02:04.968Z,41.80
2023-01-21T07:04:32.266Z,44.17
2023-01-21T07:06:59.459Z,45.10
2023-01-21T07:09:26.623Z,44.65
2023-01-21T07:11:55.435Z,38.67
2023-01-21T07:14:22.579Z,38.88
2023-01-21T07:16:49.802Z,39.33
2023-01-21T07:19:16.943Z,40.85
2023-01-21T07:21:44.200Z,39.58
2023-01-21T07:24:11.310Z,42.65
2023-01-21T07:26:38.471Z,42.03
2023-01-21T07:29:06.617Z,47.72
2023-01-21T07:31:34.137Z,43.67
2023-01-21T07:34:01.642Z,45.78
2023-01-21T07:36:29.017Z,46.40
2023-01-21T07:38:56.220Z,46.88
2023-01-21T07:41:23.926Z,47.40
2023-01-21T07:43:51.817Z,43.75
2023-01-21T07:46:22.846Z,44.95
2023-01-21T07:48:51.643Z,40.95
2023-01-21T07:51:22.534Z,47.15
2023-01-21T07:53:49.896Z,45.70
2023-01-21T07:56:18.421Z,47.60
2023-01-21T07:58:47.012Z,48.97
2023-01-21T08:01:14.267Z,49.72
2023-01-21T08:03:41.456Z,47.83
2023-01-21T08:06:08.655Z,49.58
2023-01-21T08:08:36.018Z,47.40
2023-01-21T08:11:03.313Z,45.13
2023-01-21T08:13:30.511Z,49.63
2023-01-21T08:15:57.867Z,50.70
2023-01-21T08:18:26.639Z,51.70
2023-01-21T08:20:57.082Z,50.00
2023-01-21T08:23:24.495Z,60.92
2023-01-21T08:25:51.667Z,58.00
2023-01-21T08:28:18.799Z,55.05
2023-01-21T08:30:46.005Z,56.45
2023-01-21T08:33:13.209Z,52.88
2023-01-21T08:35:40.486Z,49.63
2023-01-21T08:38:07.745Z,47.17
2023-01-21T08:40:34.913Z,49.50
2023-01-21T08:43:03.096Z,43.55
2023-01-21T08:45:30.525Z,45.20
2023-01-21T08:47:57.733Z,41.67
2023-01-21T08:50:25.120Z,49.55
2023-01-21T08:52:56.007Z,49.42
2023-01-21T08:55:27.496Z,44.42
2023-01-21T08:57:55.839Z,41.80
2023-01-21T09:00:24.114Z,42.60
2023-01-21T09:02:51.991Z,40.97
2023-01-21T09:05:19.436Z,47.33
2023-01-21T09:07:46.930Z,39.47
2023-01-21T09:10:34.575Z,43.38
2023-01-21T09:13:08.377Z,47.47
2023-01-21T09:15:39.188Z,43.38
2023-01-21T09:18:06.302Z,40.67
2023-01-21T09:20:33.417Z,47.53
2023-01-21T09:23:00.700Z,50.55
2023-01-21T09:25:27.907Z,43.22
2023-01-21T09:27:55.059Z,42.63
2023-01-21T09:30:22.294Z,45.83
2023-01-21T09:32:49.433Z,41.33
2023-01-21T09:35:16.762Z,46.85
2023-01-21T09:37:44.077Z,49.30
2023-01-21T09:40:16.359Z,44.65
2023-01-21T09:42:43.873Z,47.55
2023-01-21T09:45:14.361Z,46.03
2023-01-21T09:47:43.185Z,50.15
2023-01-21T09:50:15.038Z,49.63
2023-01-21T09:52:43.000Z,47.40
2023-01-21T09:55:15.414Z,43.50
2023-01-21T10:00:28.347Z,44.85
2023-01-21T10:03:03.146Z,46.28
2023-01-21T10:05:39.538Z,52.83
2023-01-21T10:08:12.074Z,49.35
2023-01-21T10:10:48.031Z,50.90
2023-01-21T10:13:23.424Z,47.50
2023-01-21T10:15:57.040Z,46.15
2023-01-21T10:18:25.610Z,48.53
2023-01-21T10:21:05.000Z,48.28
2023-01-21T10:23:32.132Z,46.85
2023-01-21T10:26:02.608Z,48.85
2023-01-21T10:28:30.660Z,49.15
2023-01-21T10:31:03.839Z,45.97
2023-01-21T10:33:33.361Z,47.08
2023-01-21T10:36:00.507Z,40.85
2023-01-21T10:38:39.666Z,39.67
2023-01-21T10:41:22.112Z,45.03
2023-01-21T10:43:49.293Z,41.25
2023-01-21T10:46:21.118Z,43.85
2023-01-21T10:48:57.026Z,45.75
2023-01-21T10:51:24.214Z,47.50
2023-01-21T10:53:59.056Z,46.60
2023-01-21T10:56:44.853Z,42.22
2023-01-21T10:59:14.315Z,43.35
2023-01-21T11:01:47.198Z,42.50
2023-01-21T11:04:23.351Z,41.78
2023-01-21T11:07:16.531Z,41.13
2023-01-21T11:09:45.891Z,42.40
2023-01-21T11:12:14.471Z,38.53
2023-01-21T11:14:41.645Z,40.17
2023-01-21T11:17:11.282Z,39.65
2023-01-21T11:19:38.467Z,38.80
2023-01-21T11:22:05.759Z,41.53
2023-01-21T11:24:44.238Z,50.55
2023-01-21T11:27:40.633Z,44.00
2023-01-21T11:30:31.455Z,43.28
2023-01-21T11:32:55.477Z,42.05
2023-01-21T11:35:24.400Z,40.22
2023-01-21T11:37:51.556Z,42.45
2023-01-21T11:40:20.867Z,42.67
2023-01-21T11:42:49.620Z,42.95
2023-01-21T11:45:32.244Z,40.63
2023-01-21T11:47:59.901Z,42.85
2023-01-21T11:50:38.284Z,36.90
2023-01-21T11:53:12.285Z,44.05
2023-01-21T11:55:39.481Z,42.95
2023-01-21T11:58:07.126Z,37.22
2023-01-21T12:00:35.505Z,46.25
2023-01-21T12:03:04.502Z,41.83
2023-01-21T12:05:36.472Z,44.83
2023-01-21T12:08:05.456Z,51.60
2023-01-21T12:10:43.666Z,47.17
2023-01-21T12:13:29.823Z,46.45
2023-01-21T12:16:03.471Z,42.67
2023-01-21T12:18:36.733Z,43.47
2023-01-21T12:21:15.909Z,42.50
2023-01-21T12:23:43.487Z,48.25
2023-01-21T12:26:13.590Z,46.75
2023-01-21T12:28:46.706Z,46.58
2023-01-21T12:31:23.680Z,44.55
2023-01-21T12:34:02.971Z,43.22
2023-01-21T12:36:37.618Z,43.65
2023-01-21T12:39:13.892Z,43.45
2023-01-21T12:41:42.561Z,41.38
2023-01-21T12:44:28.432Z,43.00
2023-01-21T12:46:58.950Z,42.90
2023-01-21T12:49:28.918Z,44.15
2023-01-21T12:52:02.467Z,41.55
2023-01-21T12:54:44.412Z,41.20
2023-01-21T12:57:18.502Z,44.33
2023-01-21T12:59:53.030Z,46.58
2023-01-21T13:02:39.036Z,42.58
2023-01-21T13:05:06.240Z,41.78
2023-01-21T13:07:51.995Z,43.20
2023-01-21T13:10:22.598Z,43.85
2023-01-21T13:13:05.182Z,41.80
2023-01-21T13:15:34.347Z,37.40
2023-01-21T13:18:33.791Z,36.58
2023-01-21T13:21:28.448Z,42.80
2023-01-21T13:24:16.886Z,36.65
2023-01-21T13:27:02.981Z,41.20
2023-01-21T13:29:32.141Z,43.17
2023-01-21T13:32:14.582Z,47.55
2023-01-21T13:34:55.397Z,40.22
2023-01-21T13:37:33.844Z,38.78
2023-01-21T13:40:21.313Z,36.42
2023-01-21T13:42:57.674Z,40.03
2023-01-21T13:45:30.699Z,37.50
2023-01-21T13:48:04.567Z,40.97
2023-01-21T13:50:43.918Z,35.90
2023-01-21T13:53:18.552Z,39.10
2023-01-21T13:56:01.029Z,35.00
2023-01-21T13:58:37.400Z,30.90
2023-01-21T14:01:08.728Z,34.50
2023-01-21T14:03:42.694Z,40.05
2023-01-21T14:06:09.861Z,36.70
2023-01-21T14:08:44.045Z,38.58
2023-01-21T14:11:31.672Z,37.55
2023-01-21T14:14:25.422Z,39.05
2023-01-21T14:17:04.838Z,37.83
2023-01-21T14:19:32.015Z,33.05
2023-01-21T14:22:19.115Z,37.22
2023-01-21T14:24:55.673Z,36.45
2023-01-21T14:27:34.823Z,41.05
2023-01-21T14:30:09.884Z,34.15
2023-01-21T14:32:42.061Z,37.53
2023-01-21T14:35:18.263Z,35.22
2023-01-21T14:37:48.443Z,37.28
2023-01-21T14:40:24.842Z,34.45
2023-01-21T14:42:53.136Z,35.78
2023-01-21T14:45:22.408Z,36.38
2023-01-21T14:47:51.118Z,31.50
2023-01-21T14:50:36.819Z,35.42
2023-01-21T14:53:10.604Z,33.83
2023-01-21T14:55:37.781Z,32.33
2023-01-21T14:58:04.989Z,34.95
2023-01-21T15:00:34.384Z,35.85
2023-01-21T15:03:07.404Z,36.13
2023-01-21T15:05:36.478Z,33.78
2023-01-21T15:08:06.408Z,29.73
2023-01-21T15:10:38.897Z,34.97
2023-01-21T15:13:08.330Z,32.22
2023-01-21T15:15:40.367Z,33.83
2023-01-21T15:18:10.265Z,34.80
2023-01-21T15:20:43.503Z,30.65
2023-01-21T15:23:16.909Z,29.58
2023-01-21T15:26:02.847Z,32.65
2023-01-21T15:28:33.354Z,30.02
2023-01-21T15:31:02.790Z,34.15
2023-01-21T15:33:30.971Z,27.00
2023-01-21T15:35:59.345Z,29.67
2023-01-21T15:38:27.024Z,31.38
2023-01-21T15:40:56.109Z,32.17
2023-01-21T15:43:25.985Z,38.25
2023-01-21T15:46:02.036Z,30.63
2023-01-21T15:48:48.107Z,29.35
2023-01-21T15:51:33.892Z,33.42
2023-01-21T15:54:01.043Z,31.35
2023-01-21T15:56:31.827Z,25.52
2023-01-21T15:58:59.086Z,29.52
2023-01-21T16:01:37.208Z,29.27
2023-01-21T16:04:26.050Z,30.92
2023-01-21T16:07:12.028Z,27.58
2023-01-21T16:09:45.834Z,28.77
2023-01-21T16:12:21.880Z,27.52
2023-01-21T16:14:54.840Z,26.40
2023-01-21T16:17:22.099Z,27.58
2023-01-21T16:19:50.862Z,26.85
2023-01-21T16:22:21.016Z,22.52
2023-01-21T16:24:50.455Z,23.25
2023-01-21T16:27:17.749Z,24.90
2023-01-21T16:29:44.922Z,26.52
2023-01-21T16:32:19.491Z,23.02
2023-01-21T16:34:47.936Z,23.88
2023-01-21T16:37:22.033Z,23.25
2023-01-21T16:39:49.258Z,21.40
2023-01-21T16:42:25.823Z,22.20
2023-01-21T16:44:53.208Z,20.55
2023-01-21T16:47:23.698Z,23.17
2023-01-21T16:49:50.890Z,22.05
2023-01-21T16:52:20.350Z,21.45
2023-01-21T16:54:48.735Z,25.08
2023-01-21T16:57:15.843Z,27.27
2023-01-21T16:59:44.819Z,22.50
2023-01-21T17:02:20.040Z,17.65
2023-01-21T17:04:47.601Z,21.05
2023-01-21T17:07:17.032Z,19.38
2023-01-21T17:09:44.223Z,15.75
2023-01-21T17:12:20.347Z,13.52
2023-01-21T17:14:47.489Z,17.08
2023-01-21T17:17:19.102Z,18.70
2023-01-21T17:19:46.182Z,15.57
2023-01-21T17:22:23.592Z,14.75
2023-01-21T17:24:59.103Z,15.10
2023-01-21T17:27:26.578Z,14.77
2023-01-21T17:29:53.768Z,18.58
2023-01-21T17:32:25.708Z,18.63
2023-01-21T17:35:12.004Z,15.32
2023-01-21T17:37:43.805Z,18.00
2023-01-21T17:40:27.534Z,15.73
2023-01-21T17:42:54.883Z,15.20
2023-01-21T17:45:32.669Z,16.67
2023-01-21T17:48:11.888Z,14.63
2023-01-21T17:50:45.155Z,14.93
2023-01-21T17:53:18.591Z,13.85
2023-01-21T17:55:56.341Z,15.32
2023-01-21T17:58:32.474Z,14.35
2023-01-21T18:01:03.839Z,15.27
2023-01-21T18:03:31.004Z,13.25
2023-01-21T18:05:58.511Z,15.07
2023-01-21T18:08:25.757Z,15.30
2023-01-21T18:10:53.141Z,18.75
2023-01-21T18:13:21.462Z,14.90
2023-01-21T18:15:51.516Z,13.60
2023-01-21T18:18:21.260Z,17.10
2023-01-21T18:20:48.571Z,16.98
2023-01-21T18:23:18.003Z,13.60
2023-01-21T18:25:49.129Z,14.85
2023-01-21T18:28:20.242Z,14.57
2023-01-21T18:30:47.659Z,15.50
2023-01-21T18:33:14.947Z,13.93
2023-01-21T18:35:46.331Z,16.13
2023-01-21T18:38:14.927Z,13.85
2023-01-21T18:40:42.217Z,17.98
2023-01-21T18:43:09.888Z,16.25
2023-01-21T18:45:37.057Z,16.35
2023-01-21T18:48:04.248Z,14.05
2023-01-21T18:50:31.613Z,14.43
2023-01-21T18:52:58.872Z,14.70
2023-01-21T18:55:27.165Z,14.32
2023-01-21T18:57:55.671Z,12.88
2023-01-21T19:00:27.543Z,16.67
2023-01-21T19:02:55.534Z,14.52
2023-01-21T19:05:24.462Z,13.32
2023-01-21T19:07:51.770Z,15.40
2023-01-21T19:10:20.271Z,19.55
2023-01-21T19:12:47.743Z,18.13
2023-01-21T19:15:15.755Z,19.70
2023-01-21T19:17:43.114Z,14.80
2023-01-21T19:20:16.533Z,23.17
2023-01-21T19:22:43.893Z,18.83
2023-01-21T19:25:11.514Z,16.48
2023-01-21T19:27:40.379Z,16.15
2023-01-21T19:30:21.663Z,18.27
2023-01-21T19:32:49.479Z,19.35
2023-01-21T19:35:17.645Z,17.48
2023-01-21T19:37:49.331Z,16.30
2023-01-21T19:40:18.283Z,19.97
2023-01-21T19:42:45.771Z,19.75
2023-01-21T19:45:13.581Z,19.55
2023-01-21T19:47:41.791Z,18.42
2023-01-21T19:50:14.288Z,19.00
2023-01-21T19:52:41.399Z,19.27
2023-01-21T19:55:09.120Z,17.08
2023-01-21T19:57:36.748Z,18.45
2023-01-21T20:00:03.977Z,17.95
2023-01-21T20:02:31.983Z,20.15
2023-01-21T20:05:01.316Z,25.40
2023-01-21T20:07:28.514Z,21.40
2023-01-21T20:09:55.581Z,19.75
2023-01-21T20:12:23.876Z,16.42
2023-01-21T20:14:51.127Z,21.58
2023-01-21T20:17:18.323Z,21.00
2023-01-21T20:19:45.540Z,19.27
2023-01-21T20:22:13.345Z,20.98
2023-01-21T20:24:40.469Z,18.98
2023-01-21T20:27:09.601Z,22.27
2023-01-21T20:29:44.415Z,19.77
2023-01-21T20:32:11.840Z,20.13
2023-01-21T20:34:39.017Z,34.78
2023-01-21T20:37:06.126Z,45.80
2023-01-21T20:39:40.746Z,39.20
2023-01-21T20:42:09.074Z,22.98
2023-01-21T20:44:39.550Z,22.45
2023-01-21T20:47:08.235Z,21.65
2023-01-21T20:49:35.552Z,23.05
2023-01-21T20:52:03.010Z,23.52
2023-01-21T20:54:30.153Z,23.35
2023-01-21T20:56:57.334Z,23.65
2023-01-21T20:59:24.638Z,24.95
2023-01-21T21:01:51.793Z,23.25
2023-01-21T21:04:18.986Z,24.42
2023-01-21T21:06:46.296Z,26.05
2023-01-21T21:09:13.382Z,28.60
2023-01-21T21:11:40.763Z,24.60
2023-01-21T21:14:08.055Z,29.77
2023-01-21T21:16:35.764Z,29.33
2023-01-21T21:19:03.960Z,27.95
2023-01-21T21:21:31.137Z,33.15
2023-01-21T21:23:58.356Z,29.00
2023-01-21T21:26:26.789Z,33.40
2023-01-21T21:29:03.028Z,35.25
2023-01-21T21:31:38.834Z,37.08
2023-01-21T21:34:06.286Z,32.08
2023-01-21T21:36:33.621Z,34.03
2023-01-21T21:39:00.868Z,33.45
2023-01-21T21:41:46.976Z,30.27
2023-01-21T21:44:14.229Z,32.83
2023-01-21T21:47:00.623Z,35.00
2023-01-21T21:49:28.222Z,34.85
2023-01-21T21:51:59.988Z,33.50
2023-01-21T21:54:27.172Z,33.90
2023-01-21T21:56:54.343Z,33.78
2023-01-21T21:59:21.639Z,30.65
2023-01-21T22:01:48.755Z,31.45
2023-01-21T22:04:16.360Z,37.58
2023-01-21T22:06:43.728Z,33.25
2023-01-21T22:09:10.987Z,37.67
2023-01-21T22:11:38.173Z,36.47
2023-01-21T22:14:05.336Z,37.25
2023-01-21T22:16:33.031Z,32.50
2023-01-21T22:19:00.653Z,33.20
2023-01-21T22:21:33.485Z,34.70
2023-01-21T22:24:01.402Z,38.58
2023-01-21T22:26:29.715Z,36.50
2023-01-21T22:28:56.870Z,36.47
2023-01-21T22:31:27.945Z,37.35
2023-01-21T22:33:55.662Z,37.28
2023-01-21T22:36:24.028Z,37.10
2023-01-21T22:38:51.586Z,35.58
2023-01-21T22:41:20.145Z,41.35
2023-01-21T22:43:50.760Z,40.03
2023-01-21T22:46:22.310Z,38.63
2023-01-21T22:48:49.627Z,38.30
2023-01-21T22:51:18.644Z,37.00
2023-01-21T22:53:46.097Z,40.03
2023-01-21T22:56:14.158Z,35.88
2023-01-21T22:58:41.462Z,37.15
2023-01-21T23:01:09.101Z,37.45
2023-01-21T23:03:37.542Z,41.67
2023-01-21T23:06:09.138Z,37.90
2023-01-21T23:08:39.398Z,39.80
2023-01-21T23:11:13.135Z,42.75
2023-01-21T23:13:40.439Z,43.28
2023-01-21T23:16:08.877Z,36.78
2023-01-21T23:18:40.077Z,33.65
2023-01-21T23:21:08.490Z,34.97
2023-01-21T23:23:38.714Z,37.60
2023-01-21T23:26:06.597Z,31.52
2023-01-21T23:28:34.501Z,34.50
2023-01-21T23:31:08.877Z,35.83
2023-01-21T23:33:36.153Z,29.75
2023-01-21T23:36:03.406Z,31.08
2023-01-21T23:38:30.671Z,31.52
2023-01-21T23:40:58.147Z,28.58
2023-01-21T23:43:26.486Z,27.77
2023-01-21T23:45:54.485Z,25.60
2023-01-21T23:48:22.029Z,31.95
2023-01-21T23:50:49.993Z,28.17
2023-01-21T23:53:17.366Z,27.10
2023-01-21T23:55:44.447Z,29.45
2023-01-21T23:58:11.531Z,27.48
